Time;durP1;ratioP1;P1;durP2;ratioP2;P2;SDS_P1;SDS_P2;PMS_P1;PMS_P2;Temp;Humidity;BMP_temperature;BMP_pressure;BME280_temperature;BME280_humidity;BME280_pressure;Samples;Min_cycle;Max_cycle;Signal;HPM_P1;HPM_P2
2023/08/16 00:01:36;;;;;;;7.43;4.90;;;23.50;90.80;;;;;;5054219;28;20485;-59
2023/08/16 00:04:03;;;;;;;8.07;5.00;;;23.50;90.90;;;;;;5053996;28;20938;-59
2023/08/16 00:06:29;;;;;;;5.10;4.60;;;23.50;91.00;;;;;;5054265;28;20834;-59
2023/08/16 00:08:58;;;;;;;5.37;4.87;;;23.50;91.00;;;;;;5054116;28;20449;-59
2023/08/16 00:11:25;;;;;;;6.93;6.10;;;23.40;91.10;;;;;;5054018;28;20509;-59
2023/08/16 00:13:53;;;;;;;5.50;5.00;;;23.40;91.10;;;;;;5054040;28;20474;-59
2023/08/16 00:16:20;;;;;;;6.73;6.10;;;23.30;91.20;;;;;;5054335;28;20446;-59
2023/08/16 00:18:46;;;;;;;7.57;6.30;;;23.30;91.20;;;;;;5053913;28;20502;-59
2023/08/16 00:21:13;;;;;;;10.77;7.73;;;23.30;91.30;;;;;;5053585;28;20493;-59
2023/08/16 00:23:40;;;;;;;7.10;6.40;;;23.30;91.50;;;;;;5053872;28;20850;-59
2023/08/16 00:26:06;;;;;;;8.53;7.73;;;23.30;91.60;;;;;;5053255;28;20855;-59
2023/08/16 00:28:33;;;;;;;9.60;8.70;;;23.30;91.70;;;;;;5053540;28;20962;-59
2023/08/16 00:31:01;;;;;;;10.00;9.00;;;23.20;91.70;;;;;;5053741;28;20462;-60
2023/08/16 00:33:28;;;;;;;11.20;9.20;;;23.20;91.80;;;;;;5053970;28;20441;-59
2023/08/16 00:35:55;;;;;;;9.60;8.80;;;23.20;91.90;;;;;;5054064;28;20446;-59
2023/08/16 00:38:21;;;;;;;10.13;8.90;;;23.20;91.90;;;;;;5053660;28;20445;-59
2023/08/16 00:40:49;;;;;;;10.17;7.93;;;23.20;91.90;;;;;;5053623;28;20485;-59
2023/08/16 00:43:15;;;;;;;11.27;10.07;;;23.10;91.90;;;;;;5053631;28;20524;-59
2023/08/16 00:45:43;;;;;;;11.23;9.63;;;23.10;92.00;;;;;;5053571;28;20442;-59
2023/08/16 00:48:11;;;;;;;10.83;9.33;;;23.00;92.00;;;;;;5053559;28;20445;-58
2023/08/16 00:50:38;;;;;;;10.43;8.63;;;23.00;92.10;;;;;;5053694;28;20450;-59
2023/08/16 00:53:06;;;;;;;9.60;8.70;;;22.90;92.10;;;;;;5053314;28;20457;-58
2023/08/16 00:55:33;;;;;;;11.20;9.07;;;22.90;92.20;;;;;;5053480;28;20536;-58
2023/08/16 00:58:00;;;;;;;10.23;9.17;;;22.90;92.20;;;;;;5053353;28;20438;-59
2023/08/16 01:00:28;;;;;;;10.20;9.20;;;22.90;92.30;;;;;;5053319;28;20490;-59
2023/08/16 01:02:55;;;;;;;9.40;8.50;;;22.80;92.30;;;;;;5053576;28;20445;-59
2023/08/16 01:05:23;;;;;;;8.77;8.00;;;22.80;92.40;;;;;;5053149;28;20449;-59
2023/08/16 01:07:50;;;;;;;8.23;7.40;;;22.70;92.40;;;;;;5053429;28;20448;-59
2023/08/16 01:10:17;;;;;;;7.17;6.50;;;22.70;92.50;;;;;;5053314;28;20442;-59
2023/08/16 01:12:48;;;;;;;9.67;7.90;;;22.70;92.60;;;;;;5052957;28;20838;-59
2023/08/16 01:15:20;;;;;;;8.87;7.40;;;22.70;92.60;;;;;;5053011;28;20950;-59
2023/08/16 01:17:47;;;;;;;8.00;6.87;;;22.70;92.60;;;;;;5053395;28;20841;-59
2023/08/16 01:20:15;;;;;;;8.73;6.23;;;22.70;92.70;;;;;;5053148;28;20441;-59
2023/08/16 01:22:54;;;;;;;9.00;6.73;;;22.60;92.70;;;;;;5053493;28;20832;-59
2023/08/16 01:25:31;;;;;;;6.57;6.07;;;22.60;92.80;;;;;;5052969;28;20426;-59
2023/08/16 01:28:00;;;;;;;9.50;6.10;;;22.60;92.80;;;;;;5053334;28;20492;-59
2023/08/16 01:30:29;;;;;;;7.43;6.67;;;22.60;92.80;;;;;;5053167;28;20504;-59
2023/08/16 01:32:55;;;;;;;8.83;7.17;;;22.60;92.80;;;;;;5053297;28;20434;-59
2023/08/16 01:35:22;;;;;;;7.03;6.07;;;22.50;93.20;;;;;;5053370;28;20437;-59
2023/08/16 01:37:49;;;;;;;7.60;6.67;;;22.50;93.20;;;;;;5053853;28;20437;-59
2023/08/16 01:40:18;;;;;;;6.27;5.67;;;22.50;92.90;;;;;;5057168;28;20449;-59
2023/08/16 01:42:49;;;;;;;7.60;6.70;;;22.40;92.90;;;;;;5057000;28;20468;-59
2023/08/16 01:45:19;;;;;;;7.20;6.40;;;22.40;93.10;;;;;;5057091;28;20440;-59
2023/08/16 01:47:46;;;;;;;7.37;5.60;;;22.40;93.10;;;;;;5056887;28;20444;-59
2023/08/16 01:50:13;;;;;;;5.83;5.20;;;22.30;93.10;;;;;;5056731;28;20456;-59
2023/08/16 01:52:40;;;;;;;7.40;5.20;;;22.30;93.20;;;;;;5056505;28;20951;-59
2023/08/16 01:55:08;;;;;;;6.30;5.70;;;22.20;93.20;;;;;;5056735;28;20445;-59
2023/08/16 01:57:35;;;;;;;7.23;6.10;;;22.20;93.30;;;;;;5056690;28;20437;-59
2023/08/16 02:00:01;;;;;;;6.20;5.57;;;22.20;93.30;;;;;;5056640;28;20449;-59
2023/08/16 02:02:29;;;;;;;6.30;5.33;;;22.10;93.20;;;;;;5056523;28;20535;-59
2023/08/16 02:04:56;;;;;;;7.93;6.00;;;22.10;93.30;;;;;;5056610;28;20453;-59
2023/08/16 02:07:23;;;;;;;6.80;5.67;;;22.10;93.30;;;;;;5056527;28;20519;-59
2023/08/16 02:09:50;;;;;;;8.03;5.33;;;22.00;93.30;;;;;;5056470;28;20445;-59
2023/08/16 02:12:17;;;;;;;7.00;5.70;;;22.00;93.40;;;;;;5056051;28;20461;-59
2023/08/16 02:14:44;;;;;;;6.63;6.03;;;22.00;93.50;;;;;;5056337;28;20491;-59
2023/08/16 02:17:10;;;;;;;7.67;5.63;;;21.90;93.40;;;;;;5056309;28;20438;-59
2023/08/16 02:19:38;;;;;;;10.10;5.60;;;21.90;93.50;;;;;;5057099;28;20773;-59
2023/08/16 02:22:05;;;;;;;5.97;5.37;;;21.80;93.50;;;;;;5055857;28;20489;-59
2023/08/16 02:24:32;;;;;;;6.20;5.50;;;21.80;93.70;;;;;;5056168;28;20441;-59
2023/08/16 02:26:58;;;;;;;8.00;5.80;;;21.80;93.80;;;;;;5056243;28;20453;-59
2023/08/16 02:29:25;;;;;;;5.87;5.30;;;21.80;93.90;;;;;;5056246;28;20444;-59
2023/08/16 02:31:52;;;;;;;7.90;5.30;;;21.70;94.10;;;;;;5056028;28;20462;-58
2023/08/16 02:34:18;;;;;;;8.87;5.73;;;21.70;94.00;;;;;;5056164;28;20445;-59
2023/08/16 02:36:46;;;;;;;6.33;5.17;;;21.70;94.10;;;;;;5056082;28;20449;-59
2023/08/16 02:39:13;;;;;;;7.37;6.10;;;21.70;94.20;;;;;;5055810;28;20928;-59
2023/08/16 02:41:40;;;;;;;10.90;5.93;;;21.70;94.40;;;;;;5055516;28;20998;-59
2023/08/16 02:44:07;;;;;;;7.60;5.53;;;21.70;94.50;;;;;;5055613;28;20931;-59
2023/08/16 02:46:33;;;;;;;6.30;4.80;;;21.70;94.50;;;;;;5055883;28;20491;-59
2023/08/16 02:49:00;;;;;;;6.90;6.30;;;21.70;94.60;;;;;;5055737;28;20452;-59
2023/08/16 02:51:27;;;;;;;10.13;6.10;;;21.60;94.60;;;;;;5056532;28;20802;-59
2023/08/16 02:53:55;;;;;;;6.50;5.93;;;21.60;94.60;;;;;;5055929;28;20457;-59
2023/08/16 02:56:21;;;;;;;9.43;6.00;;;21.60;94.60;;;;;;5055501;28;20840;-59
2023/08/16 02:58:48;;;;;;;7.40;6.67;;;21.60;94.70;;;;;;5055561;28;20445;-59
2023/08/16 03:01:15;;;;;;;9.77;7.37;;;21.50;94.60;;;;;;5055360;28;20493;-59
2023/08/16 03:03:43;;;;;;;7.87;7.20;;;21.40;94.90;;;;;;5055445;28;20445;-59
2023/08/16 03:06:09;;;;;;;10.77;8.00;;;21.30;95.30;;;;;;5055605;28;20450;-59
2023/08/16 03:08:36;;;;;;;7.97;7.27;;;21.30;95.90;;;;;;5056244;28;20450;-59
2023/08/16 03:11:04;;;;;;;7.87;7.07;;;21.30;96.20;;;;;;5056696;28;20468;-59
2023/08/16 03:13:31;;;;;;;11.60;8.20;;;21.30;96.30;;;;;;5063479;28;20452;-59
2023/08/16 03:16:00;;;;;;;11.10;8.20;;;21.30;96.40;;;;;;5076703;28;20441;-64
2023/08/16 03:18:27;;;;;;;8.33;7.63;;;21.40;96.40;;;;;;5075324;28;20447;-59
2023/08/16 03:20:53;;;;;;;8.53;7.73;;;21.30;96.50;;;;;;5074931;28;20476;-59
2023/08/16 03:23:20;;;;;;;11.80;9.03;;;21.40;96.70;;;;;;5074828;28;20969;-59
2023/08/16 03:25:46;;;;;;;9.33;8.33;;;21.40;96.80;;;;;;5075114;28;20449;-59
2023/08/16 03:28:14;;;;;;;12.93;8.30;;;21.50;97.00;;;;;;5075048;28;20467;-59
2023/08/16 03:30:41;;;;;;;10.57;8.97;;;21.50;96.90;;;;;;5074861;28;20469;-59
2023/08/16 03:33:08;;;;;;;10.83;7.37;;;21.40;97.00;;;;;;5074907;28;20466;-59
2023/08/16 03:35:35;;;;;;;9.53;8.63;;;21.50;97.20;;;;;;5074811;28;20448;-59
2023/08/16 03:38:01;;;;;;;14.40;8.13;;;21.50;97.20;;;;;;5074596;28;20648;-59
2023/08/16 03:40:28;;;;;;;8.70;7.30;;;21.50;97.30;;;;;;5074634;28;20453;-59
2023/08/16 03:42:55;;;;;;;9.43;8.10;;;21.50;97.30;;;;;;5074336;28;20997;-59
2023/08/16 03:45:25;;;;;;;10.27;7.37;;;21.50;97.20;;;;;;5074697;28;20440;-59
2023/08/16 03:47:53;;;;;;;8.80;8.00;;;21.50;97.20;;;;;;5074869;28;20428;-59
2023/08/16 03:50:20;;;;;;;12.63;8.73;;;21.60;97.20;;;;;;5074468;28;20571;-59
2023/08/16 03:52:47;;;;;;;8.10;7.30;;;21.60;97.20;;;;;;5074485;28;20561;-59
2023/08/16 03:55:13;;;;;;;10.33;6.93;;;21.60;97.20;;;;;;5074688;28;20445;-59
2023/08/16 03:57:40;;;;;;;9.57;6.87;;;21.60;97.20;;;;;;5074383;28;20468;-59
2023/08/16 04:00:11;;;;;;;8.98;7.53;;;21.70;97.30;;;;;;5073315;28;20449;-59
2023/08/16 04:02:39;;;;;;;9.30;6.67;;;21.70;97.20;;;;;;5074161;28;20241;-59
2023/08/16 04:05:10;;;;;;;8.03;6.93;;;21.70;97.10;;;;;;5074273;28;20444;-59
2023/08/16 04:07:37;;;;;;;10.00;7.80;;;21.70;97.10;;;;;;5074254;28;20436;-59
2023/08/16 04:10:04;;;;;;;9.00;7.27;;;21.80;97.00;;;;;;5074140;28;20444;-59
2023/08/16 04:12:30;;;;;;;7.83;6.97;;;21.80;97.00;;;;;;5073650;28;20459;-59
2023/08/16 04:14:57;;;;;;;8.20;7.40;;;21.80;97.00;;;;;;5074049;28;20869;-59
2023/08/16 04:17:24;;;;;;;8.83;6.90;;;21.80;97.10;;;;;;5074059;28;20440;-59
2023/08/16 04:19:52;;;;;;;9.33;6.30;;;21.80;97.00;;;;;;5073999;28;20445;-59
2023/08/16 04:22:18;;;;;;;7.47;6.60;;;21.80;97.00;;;;;;5073511;28;20491;-59
2023/08/16 04:24:45;;;;;;;6.80;6.13;;;21.80;97.00;;;;;;5073902;28;20456;-59
2023/08/16 04:27:12;;;;;;;8.30;6.60;;;21.80;97.00;;;;;;5073835;28;20445;-59
2023/08/16 04:29:40;;;;;;;7.20;6.00;;;21.80;96.90;;;;;;5073835;28;20452;-59
2023/08/16 04:32:07;;;;;;;6.80;6.17;;;21.80;97.00;;;;;;5073693;28;20974;-59
2023/08/16 04:34:33;;;;;;;8.03;6.63;;;21.80;96.90;;;;;;5073383;28;20445;-59
2023/08/16 04:37:01;;;;;;;6.00;5.40;;;21.80;96.90;;;;;;5073759;28;20885;-59
2023/08/16 04:39:28;;;;;;;7.40;6.00;;;21.80;96.80;;;;;;5073647;28;20444;-59
2023/08/16 04:41:55;;;;;;;6.40;5.20;;;21.80;96.70;;;;;;5073542;28;20480;-59
2023/08/16 04:44:21;;;;;;;6.47;5.87;;;21.70;96.60;;;;;;5073644;28;20444;-59
2023/08/16 04:46:49;;;;;;;7.53;5.87;;;21.70;96.70;;;;;;5073518;28;20828;-59
2023/08/16 04:49:16;;;;;;;8.23;6.20;;;21.70;96.80;;;;;;5073625;28;20458;-59
2023/08/16 04:51:43;;;;;;;7.37;5.57;;;21.80;96.80;;;;;;5073484;28;20465;-59
2023/08/16 04:54:10;;;;;;;8.77;5.30;;;21.70;96.70;;;;;;5073570;28;20505;-59
2023/08/16 04:56:37;;;;;;;6.60;5.17;;;21.80;96.70;;;;;;5073483;28;20448;-59
2023/08/16 04:59:04;;;;;;;5.97;4.57;;;21.80;96.70;;;;;;5073426;28;20447;-59
2023/08/16 05:01:31;;;;;;;10.97;5.33;;;21.80;96.60;;;;;;5073226;28;20484;-60
2023/08/16 05:03:58;;;;;;;6.57;4.80;;;21.80;96.70;;;;;;5073400;28;20441;-59
2023/08/16 05:06:25;;;;;;;6.40;5.00;;;21.80;96.80;;;;;;5073326;28;20453;-59
2023/08/16 05:08:51;;;;;;;6.33;5.00;;;21.80;96.80;;;;;;5073327;28;20444;-58
2023/08/16 05:11:19;;;;;;;6.17;5.60;;;21.80;96.70;;;;;;5073243;28;20468;-58
2023/08/16 05:13:46;;;;;;;6.70;5.47;;;21.80;96.70;;;;;;5073402;28;20440;-58
2023/08/16 05:16:13;;;;;;;7.77;5.30;;;21.80;96.80;;;;;;5073688;28;20449;-59
2023/08/16 05:18:39;;;;;;;6.40;5.10;;;21.90;96.80;;;;;;5073577;28;20455;-58
2023/08/16 05:21:06;;;;;;;5.80;4.20;;;21.90;96.80;;;;;;5073589;28;20476;-58
2023/08/16 05:23:34;;;;;;;6.77;5.33;;;21.90;96.80;;;;;;5073117;28;20484;-58
2023/08/16 05:26:01;;;;;;;5.27;4.83;;;22.00;96.70;;;;;;5073244;28;20452;-58
2023/08/16 05:28:29;;;;;;;8.07;5.93;;;22.00;96.60;;;;;;5073110;28;20799;-58
2023/08/16 05:30:56;;;;;;;5.87;5.13;;;22.00;96.60;;;;;;5073002;28;20556;-58
2023/08/16 05:33:22;;;;;;;10.00;5.03;;;22.00;96.50;;;;;;5073087;28;20444;-58
2023/08/16 05:35:49;;;;;;;6.77;5.53;;;22.00;96.50;;;;;;5073041;28;20444;-58
2023/08/16 05:38:18;;;;;;;5.33;4.83;;;22.10;96.50;;;;;;5073082;28;20445;-58
2023/08/16 05:40:44;;;;;;;9.53;5.30;;;22.10;96.40;;;;;;5072905;28;20469;-59
2023/08/16 05:43:11;;;;;;;5.60;5.00;;;22.20;96.50;;;;;;5072928;28;20551;-59
2023/08/16 05:45:39;;;;;;;6.37;4.27;;;22.20;96.40;;;;;;5072951;28;20444;-58
2023/08/16 05:48:06;;;;;;;5.00;4.20;;;22.20;96.40;;;;;;5072996;28;20437;-58
2023/08/16 05:50:34;;;;;;;6.53;4.90;;;22.30;96.40;;;;;;5072768;28;20500;-58
2023/08/16 05:53:00;;;;;;;6.13;5.07;;;22.30;96.40;;;;;;5072912;28;20444;-59
2023/08/16 05:55:27;;;;;;;5.53;4.87;;;22.40;96.30;;;;;;5072862;28;20449;-58
2023/08/16 05:57:54;;;;;;;5.60;5.10;;;22.50;96.40;;;;;;5073160;28;20440;-58
2023/08/16 06:00:21;;;;;;;6.37;5.20;;;22.60;96.30;;;;;;5072529;28;20506;-58
2023/08/16 06:02:49;;;;;;;4.77;4.17;;;22.60;96.20;;;;;;5072603;28;20476;-58
2023/08/16 06:05:15;;;;;;;8.13;5.30;;;22.70;96.20;;;;;;5072913;28;20444;-58
2023/08/16 06:07:42;;;;;;;6.40;5.00;;;22.80;96.40;;;;;;5072784;28;20452;-58
2023/08/16 06:10:09;;;;;;;10.00;5.40;;;22.80;95.90;;;;;;5072675;28;20456;-59
2023/08/16 06:12:35;;;;;;;7.70;4.33;;;22.90;95.80;;;;;;5072488;28;20938;-59
2023/08/16 06:15:02;;;;;;;10.53;5.33;;;22.90;95.70;;;;;;5072809;28;20452;-59
2023/08/16 06:17:29;;;;;;;9.33;5.00;;;22.90;95.70;;;;;;5072490;28;20466;-59
2023/08/16 06:19:57;;;;;;;5.03;4.53;;;23.00;95.70;;;;;;5072757;28;20471;-59
2023/08/16 06:22:24;;;;;;;6.00;4.67;;;23.00;95.40;;;;;;5072455;28;20484;-59
2023/08/16 06:24:50;;;;;;;4.80;3.80;;;23.00;95.40;;;;;;5074906;28;20448;-59
2023/08/16 06:27:17;;;;;;;5.20;4.50;;;23.10;95.30;;;;;;5076239;28;20432;-59
2023/08/16 06:29:44;;;;;;;5.90;4.50;;;23.20;95.10;;;;;;5075858;28;20964;-59
2023/08/16 06:32:10;;;;;;;9.60;5.97;;;23.20;94.90;;;;;;5075767;28;20837;-59
2023/08/16 06:34:38;;;;;;;9.47;6.20;;;23.30;94.90;;;;;;5075846;28;20831;-59
2023/08/16 06:37:06;;;;;;;6.77;4.93;;;23.40;94.90;;;;;;5076019;28;20529;-59
2023/08/16 06:39:33;;;;;;;8.63;6.13;;;23.50;94.80;;;;;;5075986;28;20455;-59
2023/08/16 06:41:59;;;;;;;6.57;5.40;;;23.50;94.50;;;;;;5075829;28;20559;-59
2023/08/16 06:44:26;;;;;;;8.37;5.50;;;23.60;94.50;;;;;;5076027;28;20487;-59
2023/08/16 06:46:53;;;;;;;8.53;5.60;;;23.60;94.40;;;;;;5076004;28;20444;-59
2023/08/16 06:49:21;;;;;;;8.87;6.03;;;23.70;94.30;;;;;;5075942;28;20444;-58
2023/08/16 06:51:47;;;;;;;6.47;5.40;;;23.70;94.10;;;;;;5075841;28;20469;-58
2023/08/16 06:54:15;;;;;;;5.60;4.73;;;23.80;94.00;;;;;;5075920;28;20448;-59
2023/08/16 06:56:42;;;;;;;8.90;4.93;;;23.80;93.90;;;;;;5075757;28;20441;-58
2023/08/16 06:59:09;;;;;;;7.13;5.47;;;23.90;93.80;;;;;;5075555;28;20483;-59
2023/08/16 07:01:36;;;;;;;9.80;5.90;;;24.00;93.80;;;;;;5075467;28;20532;-59
2023/08/16 07:04:03;;;;;;;8.90;6.47;;;24.00;93.70;;;;;;5075146;28;20487;-59
2023/08/16 07:06:31;;;;;;;7.70;6.00;;;24.10;93.60;;;;;;5075484;28;20511;-59
2023/08/16 07:08:58;;;;;;;9.30;6.13;;;24.20;93.30;;;;;;5075411;28;20449;-59
2023/08/16 07:11:27;;;;;;;7.20;5.77;;;24.20;93.10;;;;;;5075325;28;20563;-59
2023/08/16 07:13:53;;;;;;;10.30;5.63;;;24.30;93.00;;;;;;5075222;28;20437;-59
2023/08/16 07:16:20;;;;;;;12.47;6.27;;;24.30;92.90;;;;;;5075194;28;20453;-59
2023/08/16 07:18:47;;;;;;;14.33;7.03;;;24.30;92.80;;;;;;5075250;28;20884;-59
2023/08/16 07:21:14;;;;;;;14.50;7.40;;;24.20;92.60;;;;;;5074921;28;20491;-59
2023/08/16 07:23:41;;;;;;;10.20;6.43;;;24.20;92.60;;;;;;5075090;28;20491;-59
2023/08/16 07:26:08;;;;;;;12.47;7.33;;;24.10;92.60;;;;;;5075359;28;20481;-59
2023/08/16 07:28:36;;;;;;;13.03;7.33;;;24.10;92.80;;;;;;5075050;28;20440;-59
2023/08/16 07:31:03;;;;;;;10.80;7.20;;;24.10;92.80;;;;;;5074876;28;20836;-59
2023/08/16 07:33:30;;;;;;;9.87;7.57;;;24.10;92.90;;;;;;5074926;28;20437;-59
2023/08/16 07:36:00;;;;;;;9.13;6.50;;;24.10;92.90;;;;;;5073822;28;20479;-59
2023/08/16 07:38:28;;;;;;;10.90;7.83;;;24.10;93.00;;;;;;5074751;28;20448;-59
2023/08/16 07:40:55;;;;;;;8.20;6.33;;;24.20;93.00;;;;;;5074686;28;20556;-59
2023/08/16 07:43:21;;;;;;;11.97;7.40;;;24.30;93.00;;;;;;5074283;28;20893;-59
2023/08/16 07:45:53;;;;;;;9.90;6.87;;;24.40;93.00;;;;;;5074735;28;20441;-58
2023/08/16 07:48:21;;;;;;;14.93;8.50;;;24.60;92.90;;;;;;5074366;28;20903;-58
2023/08/16 07:50:47;;;;;;;11.70;7.10;;;24.80;92.70;;;;;;5074593;28;20465;-58
2023/08/16 07:53:14;;;;;;;7.97;6.10;;;25.00;92.40;;;;;;5074391;28;20449;-58
2023/08/16 07:55:41;;;;;;;12.27;7.60;;;25.20;92.10;;;;;;5074494;28;20451;-58
2023/08/16 07:58:07;;;;;;;11.60;6.77;;;25.40;91.60;;;;;;5074447;28;20814;-58
2023/08/16 08:00:34;;;;;;;11.47;7.07;;;25.50;91.20;;;;;;5074294;28;20468;-58
2023/08/16 08:03:03;;;;;;;9.20;7.77;;;25.50;90.70;;;;;;5074368;28;20489;-58
2023/08/16 08:05:31;;;;;;;9.93;8.27;;;25.60;90.50;;;;;;5074087;28;20448;-58
2023/08/16 08:07:58;;;;;;;11.27;7.80;;;25.60;90.30;;;;;;5074021;28;20938;-58
2023/08/16 08:10:24;;;;;;;10.50;8.57;;;25.60;90.20;;;;;;5074150;28;20488;-58
2023/08/16 08:12:51;;;;;;;10.20;9.20;;;25.50;90.10;;;;;;5074257;28;20494;-58
2023/08/16 08:15:19;;;;;;;9.93;9.00;;;25.50;90.10;;;;;;5073865;28;20970;-58
2023/08/16 08:17:46;;;;;;;10.27;9.20;;;25.40;90.20;;;;;;5074129;28;20448;-58
2023/08/16 08:20:14;;;;;;;12.30;9.80;;;25.40;90.40;;;;;;5073984;28;20845;-58
2023/08/16 08:22:41;;;;;;;10.00;9.10;;;25.40;90.60;;;;;;5073490;28;20488;-58
2023/08/16 08:25:08;;;;;;;10.37;9.37;;;25.40;90.90;;;;;;5073951;28;20512;-58
2023/08/16 08:27:36;;;;;;;10.47;9.50;;;25.40;90.90;;;;;;5074451;28;20464;-58
2023/08/16 08:30:03;;;;;;;9.40;8.50;;;25.40;91.00;;;;;;5073526;28;20449;-58
2023/08/16 08:32:30;;;;;;;11.30;10.20;;;25.40;91.00;;;;;;5073769;28;20437;-58
2023/08/16 08:34:57;;;;;;;11.93;10.67;;;25.40;91.10;;;;;;5073855;28;20795;-58
2023/08/16 08:37:25;;;;;;;9.83;8.80;;;25.30;91.20;;;;;;5073676;28;20449;-58
2023/08/16 08:39:52;;;;;;;10.60;9.60;;;25.40;91.10;;;;;;5073668;28;20444;-58
2023/08/16 08:42:19;;;;;;;11.80;10.20;;;25.40;91.10;;;;;;5073601;28;20460;-58
2023/08/16 08:44:45;;;;;;;10.00;9.20;;;25.40;91.20;;;;;;5073550;28;20444;-58
2023/08/16 08:47:12;;;;;;;11.87;10.67;;;25.40;91.10;;;;;;5073210;28;20441;-58
2023/08/16 08:49:40;;;;;;;12.10;11.00;;;25.40;90.90;;;;;;5073612;28;20433;-58
2023/08/16 08:52:07;;;;;;;13.27;11.17;;;25.40;90.90;;;;;;5073188;28;20468;-58
2023/08/16 08:54:35;;;;;;;14.50;12.83;;;25.30;91.00;;;;;;5073238;28;20440;-58
2023/08/16 08:57:03;;;;;;;13.90;12.73;;;25.20;91.20;;;;;;5073442;28;20440;-58
2023/08/16 08:59:32;;;;;;;14.30;12.63;;;25.10;91.30;;;;;;5073451;28;20441;-58
2023/08/16 09:02:00;;;;;;;16.47;13.60;;;25.10;91.40;;;;;;5073303;28;20487;-58
2023/08/16 09:04:29;;;;;;;12.57;11.47;;;25.00;91.40;;;;;;5073407;28;20483;-58
2023/08/16 09:06:59;;;;;;;15.10;13.80;;;25.00;91.50;;;;;;5073400;28;20444;-58
2023/08/16 09:09:25;;;;;;;14.13;12.73;;;25.00;91.70;;;;;;5073212;28;20938;-58
2023/08/16 09:11:53;;;;;;;14.30;12.97;;;25.00;91.80;;;;;;5073378;28;20469;-58
2023/08/16 09:14:20;;;;;;;14.57;13.27;;;25.10;92.00;;;;;;5073338;28;20511;-58
2023/08/16 09:16:47;;;;;;;15.57;14.27;;;25.00;92.00;;;;;;5073290;28;20440;-58
2023/08/16 09:19:14;;;;;;;14.10;12.60;;;25.00;91.90;;;;;;5073388;28;20445;-58
2023/08/16 09:21:41;;;;;;;13.50;12.20;;;25.10;92.20;;;;;;5072738;28;20998;-58
2023/08/16 09:24:08;;;;;;;13.57;10.67;;;25.10;92.40;;;;;;5073398;28;20489;-58
2023/08/16 09:26:37;;;;;;;11.90;10.73;;;25.20;92.50;;;;;;5072905;28;20947;-58
2023/08/16 09:29:06;;;;;;;13.10;11.80;;;25.30;92.30;;;;;;5073195;28;20479;-58
2023/08/16 09:31:38;;;;;;;12.10;11.00;;;25.40;92.10;;;;;;5073051;28;20472;-58
2023/08/16 09:34:06;;;;;;;12.70;11.43;;;25.50;92.00;;;;;;5073102;28;20428;-58
2023/08/16 09:36:35;;;;;;;13.90;12.53;;;25.60;91.80;;;;;;5073099;28;20467;-58
2023/08/16 09:39:03;;;;;;;13.10;12.00;;;25.70;92.10;;;;;;5073853;28;20448;-58
2023/08/16 09:41:31;;;;;;;20.67;12.43;;;25.70;91.60;;;;;;5072964;28;20547;-58
2023/08/16 09:44:08;;;;;;;13.23;12.10;;;25.70;91.60;;;;;;5072959;28;20484;-58
2023/08/16 09:46:36;;;;;;;12.53;10.97;;;25.70;91.60;;;;;;5073055;28;20463;-58
2023/08/16 09:49:06;;;;;;;14.97;12.83;;;25.70;91.40;;;;;;5073014;28;20453;-58
2023/08/16 09:51:33;;;;;;;12.73;11.60;;;25.70;91.20;;;;;;5072681;28;20464;-58
2023/08/16 09:54:01;;;;;;;13.80;12.40;;;25.90;91.30;;;;;;5072949;28;20523;-58
2023/08/16 09:56:32;;;;;;;13.33;12.03;;;25.90;91.20;;;;;;5073130;28;20537;-58
2023/08/16 09:58:59;;;;;;;12.20;11.17;;;26.00;91.30;;;;;;5074102;28;20433;-58
2023/08/16 10:01:27;;;;;;;15.27;13.77;;;26.10;91.30;;;;;;5076818;28;20461;-58
2023/08/16 10:03:54;;;;;;;13.07;11.67;;;26.20;91.10;;;;;;5076449;28;21005;-58
2023/08/16 10:06:23;;;;;;;13.40;12.10;;;26.20;91.30;;;;;;5076280;28;20803;-58
2023/08/16 10:08:52;;;;;;;13.93;12.80;;;26.20;90.80;;;;;;5076576;28;20867;-58
2023/08/16 10:11:19;;;;;;;14.50;13.10;;;26.20;90.70;;;;;;5076165;28;20468;-58
2023/08/16 10:13:45;;;;;;;15.87;14.37;;;26.20;90.60;;;;;;5076447;28;20433;-57
2023/08/16 10:16:14;;;;;;;16.40;14.90;;;26.20;90.50;;;;;;5076224;28;20896;-57
2023/08/16 10:18:43;;;;;;;17.30;15.20;;;26.20;90.80;;;;;;5076400;28;20448;-57
2023/08/16 10:21:15;;;;;;;19.90;17.10;;;26.10;91.10;;;;;;5076176;28;20504;-58
2023/08/16 10:23:42;;;;;;;17.90;15.70;;;26.10;91.50;;;;;;5076139;28;20874;-57
2023/08/16 10:26:14;;;;;;;16.23;14.80;;;26.00;91.50;;;;;;5076247;28;20440;-57
2023/08/16 10:28:43;;;;;;;20.03;18.10;;;26.00;91.90;;;;;;5076118;28;20421;-57
2023/08/16 10:31:11;;;;;;;16.77;15.20;;;26.00;92.00;;;;;;5076137;28;20518;-57
2023/08/16 10:33:44;;;;;;;16.57;14.97;;;25.90;92.20;;;;;;5076044;28;20449;-57
2023/08/16 10:36:11;;;;;;;17.40;15.63;;;25.90;92.30;;;;;;5075835;28;20800;-56
2023/08/16 10:38:38;;;;;;;18.03;16.40;;;25.80;92.40;;;;;;5075978;28;20467;-56
2023/08/16 10:41:11;;;;;;;17.70;15.97;;;25.80;92.60;;;;;;5075890;28;20475;-57
2023/08/16 10:43:38;;;;;;;18.40;16.60;;;25.80;92.80;;;;;;5075906;28;20499;-57
2023/08/16 10:46:05;;;;;;;16.20;14.80;;;25.90;92.90;;;;;;5075593;28;21030;-57
2023/08/16 10:48:35;;;;;;;18.30;16.50;;;26.00;93.00;;;;;;5075935;28;20480;-57
2023/08/16 10:51:06;;;;;;;15.73;14.17;;;26.10;93.00;;;;;;5075826;28;20834;-58
2023/08/16 10:53:34;;;;;;;17.30;15.73;;;26.20;92.80;;;;;;5075564;28;20459;-58
2023/08/16 10:56:06;;;;;;;17.97;16.33;;;26.40;92.70;;;;;;5075783;28;20444;-58
2023/08/16 10:58:46;;;;;;;16.13;14.60;;;26.50;92.50;;;;;;5075637;28;20853;-59
2023/08/16 11:01:13;;;;;;;16.37;14.90;;;26.60;92.20;;;;;;5075674;28;20457;-59
2023/08/16 11:03:43;;;;;;;15.83;14.50;;;26.80;91.90;;;;;;5075626;28;20484;-59
2023/08/16 11:06:13;;;;;;;16.10;14.50;;;27.00;91.70;;;;;;5075570;28;20429;-59
2023/08/16 11:08:41;;;;;;;15.23;13.80;;;27.30;91.40;;;;;;5074923;28;21012;-59
2023/08/16 11:11:08;;;;;;;14.40;13.00;;;27.50;90.80;;;;;;5075209;28;20534;-59
2023/08/16 11:13:35;;;;;;;14.90;13.70;;;27.80;90.40;;;;;;5075440;28;20440;-59
2023/08/16 11:16:02;;;;;;;14.33;13.13;;;28.10;90.00;;;;;;5075355;28;20441;-59
2023/08/16 11:18:30;;;;;;;12.70;11.70;;;28.50;86.90;;;;;;5074998;28;20947;-59
2023/08/16 11:20:59;;;;;;;11.70;10.60;;;29.30;86.20;;;;;;5074984;28;20484;-57
2023/08/16 11:23:32;;;;;;;12.17;11.17;;;30.30;83.30;;;;;;5075176;28;20436;-58
2023/08/16 11:26:00;;;;;;;12.37;11.20;;;31.40;78.20;;;;;;5075138;28;20494;-58
2023/08/16 11:28:27;;;;;;;12.40;11.30;;;32.40;72.10;;;;;;5075210;28;20455;-58
2023/08/16 11:30:57;;;;;;;11.83;10.63;;;33.40;66.80;;;;;;5075068;28;20467;-58
2023/08/16 11:33:24;;;;;;;11.70;10.70;;;34.30;59.80;;;;;;5075014;28;20444;-58
2023/08/16 11:35:52;;;;;;;14.63;13.10;;;34.90;56.20;;;;;;5075028;28;20451;-58
2023/08/16 11:38:19;;;;;;;12.23;11.00;;;35.30;54.20;;;;;;5074965;28;20448;-58
2023/08/16 11:40:48;;;;;;;12.97;11.70;;;35.50;52.90;;;;;;5074484;28;20492;-58
2023/08/16 11:43:15;;;;;;;14.50;13.00;;;35.40;52.40;;;;;;5074494;28;20676;-58
2023/08/16 11:45:42;;;;;;;12.50;11.50;;;35.20;51.80;;;;;;5074827;28;20197;-58
2023/08/16 11:48:09;;;;;;;12.20;11.07;;;34.90;51.80;;;;;;5074778;28;20213;-58
2023/08/16 11:50:35;;;;;;;12.97;11.67;;;34.50;52.30;;;;;;5074576;28;20464;-58
2023/08/16 11:53:04;;;;;;;11.80;10.70;;;34.20;52.80;;;;;;5074617;28;20448;-58
2023/08/16 11:55:30;;;;;;;14.03;11.90;;;34.10;53.30;;;;;;5074577;28;20436;-58
2023/08/16 11:58:04;;;;;;;10.60;9.70;;;34.00;53.80;;;;;;5074584;28;20452;-58
2023/08/16 12:00:32;;;;;;;10.97;9.97;;;33.90;53.90;;;;;;5074455;28;20800;-58
2023/08/16 12:02:58;;;;;;;10.90;10.00;;;33.90;53.80;;;;;;5074383;28;20454;-58
2023/08/16 12:05:26;;;;;;;12.50;10.30;;;34.30;53.20;;;;;;5074303;28;20479;-58
2023/08/16 12:07:53;;;;;;;9.30;8.40;;;35.10;52.00;;;;;;5074084;28;20255;-58
2023/08/16 12:10:24;;;;;;;9.27;8.47;;;36.10;50.30;;;;;;5073939;28;20679;-59
2023/08/16 12:12:52;;;;;;;7.95;7.15;;;37.00;48.00;;;;;;5073784;28;20228;-58
2023/08/16 12:15:22;;;;;;;9.45;8.20;;;38.00;45.00;;;;;;5074207;28;20201;-59
2023/08/16 12:17:49;;;;;;;8.10;7.03;;;38.90;42.60;;;;;;5074188;28;20236;-59
2023/08/16 12:20:16;;;;;;;10.02;7.80;;;39.10;41.00;;;;;;5073987;28;20202;-59
2023/08/16 12:22:44;;;;;;;8.95;8.05;;;39.50;40.10;;;;;;5073223;28;20209;-59
2023/08/16 12:25:11;;;;;;;8.55;6.97;;;40.20;38.90;;;;;;5073638;28;20218;-57
2023/08/16 12:27:37;;;;;;;9.05;6.80;;;41.00;36.80;;;;;;5073956;28;20701;-58
2023/08/16 12:30:05;;;;;;;7.80;6.88;;;41.50;35.20;;;;;;5074390;28;20228;-58
2023/08/16 12:32:33;;;;;;;7.82;7.07;;;41.80;34.40;;;;;;5073857;28;20212;-58
2023/08/16 12:35:00;;;;;;;7.43;6.72;;;42.30;33.10;;;;;;5073793;28;20198;-58
2023/08/16 12:37:27;;;;;;;7.78;7.07;;;42.30;32.00;;;;;;5073711;28;20254;-59
2023/08/16 12:39:53;;;;;;;6.50;5.90;;;42.00;32.30;;;;;;5073762;28;20205;-59
2023/08/16 12:42:20;;;;;;;7.25;6.60;;;41.70;33.10;;;;;;5073313;28;20233;-59